Last 7 Days

Scotts Valley

Hourly Data | America/Los_Angeles
as of 5/18/21 4:05 PM PDT
Date & Time Temp (°F) RH (%) Dew Pt (°F) Wind Dir (°) Wind Spd (mph) Wind Gust (mph) Leaf Wet (mins) BatVolt (V) Latest Rain (In) Max Rain Intensity (In/Hr) Storm Total (In) Rain 24Hr (In) Daily Rain (In) Daily Min Temp (°F) Daily Max Temp (°F) Daily Max Wind (mph) Daily Leaf Wet Hrs (hrs)
5/18/21 - 1600 74.1 25 35.8 W | 271 4.8 20.7 0.0 13.2 0.00 - - - 0.00 41.8 76.2 20.7 0.0
5/18/21 - 1500 74.6 24 35.3 W | 275 5.0 16.0 0.0 13.2 0.00 - - - 0.00 41.8 75.9 18.5 0.0
5/18/21 - 1400 73.8 28 38.9 W | 270 5.3 18.5 0.0 13.2 0.00 - - - 0.00 41.8 74.8 18.5 0.0
5/18/21 - 1300 72.9 31 40.3 WNW | 282 4.8 15.6 0.0 13.2 0.00 - - - 0.00 41.8 73.7 15.6 0.0
5/18/21 - 1200 72.3 31 40.2 NW | 311 3.4 11.3 0.0 13.2 0.00 - - - 0.00 41.8 73.4 11.3 0.0
5/18/21 - 1100 70.4 39 44.0 NNW | 344 3.1 9.4 0.0 13.2 0.00 - - - 0.00 41.8 71.8 9.4 0.0
5/18/21 - 1000 67.8 42 44.0 N | 3 2.4 8.1 0.0 13.3 0.00 - - - 0.00 41.8 69.2 8.1 0.0
5/18/21 - 0900 63.3 46 42.2 N | 9 1.9 5.7 0.0 13.4 0.00 - - - 0.00 41.8 66.0 6.9 0.0
5/18/21 - 0800 54.2 69 43.7 N | 7 1.0 3.9 0.0 13.3 0.00 - - - 0.00 41.8 60.4 6.9 0.0
5/18/21 - 0700 42.8 93 41.0 SSE | 152 0.3 1.9 0.0 12.8 0.00 - - - 0.00 41.8 54.1 6.9 0.0
5/18/21 - 0600 44.8 84 40.3 ESE | 122 0.3 2.2 0.0 12.7 0.00 - - - 0.00 42.2 54.1 6.9 0.0
5/18/21 - 0500 49.9 73 41.8 N | 350 1.1 4.8 0.0 12.7 0.00 - - - 0.00 48.0 54.1 6.9 0.0
5/18/21 - 0400 52.1 68 41.8 NNW | 345 2.4 6.9 0.0 12.8 0.00 - - - 0.00 51.2 54.1 6.9 0.0
5/18/21 - 0300 51.8 68 41.6 N | 1 1.4 4.8 0.0 12.8 0.00 - - - 0.00 51.2 54.1 5.3 0.0
5/18/21 - 0200 53.6 66 42.7 N | 353 1.7 5.3 0.0 12.8 0.00 - - - 0.00 53.0 54.1 5.3 0.0
5/18/21 - 0100 55.1 64 43.2 NNW | 330 1.2 4.4 0.0 12.8 0.00 - - - 0.00 40.6 78.5 19.8 6.2
5/18/21 - 0000 57.4 59 43.2 W | 277 1.1 4.7 0.0 12.8 0.00 - - - 0.00 40.6 78.5 19.8 6.2
5/17/21 - 2300 57.9 55 42.0 WNW | 286 1.6 9.9 0.0 12.9 0.00 - - - 0.00 40.6 78.5 19.8 6.2
5/17/21 - 2200 58.7 52 41.3 W | 277 2.5 10.8 0.0 12.9 0.00 - - - 0.00 40.6 78.5 19.8 6.2
5/17/21 - 2100 61.4 49 42.0 W | 276 2.7 11.3 0.0 13.0 0.00 - - - 0.00 40.6 78.5 19.8 6.2
5/17/21 - 2000 66.0 47 45.3 W | 270 4.3 14.4 0.0 13.2 0.00 - - - 0.00 40.6 78.5 19.8 6.2
5/17/21 - 1900 70.2 44 46.8 W | 272 4.8 16.2 0.0 13.3 0.00 - - - 0.00 40.6 78.5 19.8 6.2
5/17/21 - 1800 74.0 34 44.1 W | 270 5.6 19.8 0.0 13.2 0.00 - - - 0.00 40.6 78.5 19.8 6.2
5/17/21 - 1700 75.8 33 44.5 W | 268 5.3 16.6 0.0 13.2 0.00 - - - 0.00 40.6 78.5 18.6 6.2
5/17/21 - 1600 76.8 31 44.0 W | 270 5.0 18.6 0.0 13.2 0.00 - - - 0.00 40.6 78.5 18.6 6.2
5/17/21 - 1500 77.8 30 44.0 W | 264 6.7 18.6 0.0 13.2 0.00 - - - 0.00 40.6 78.5 18.6 6.2
5/17/21 - 1400 77.0 33 45.8 WSW | 253 6.0 16.2 0.0 13.2 0.00 - - - 0.00 40.6 78.0 16.2 6.2
5/17/21 - 1300 75.2 39 48.7 W | 278 3.6 11.2 0.0 13.2 0.00 - - - 0.00 40.6 76.3 11.2 6.2
5/17/21 - 1200 73.4 47 51.8 ENE | 74 2.3 7.3 0.0 13.2 0.00 - - - 0.00 40.6 75.3 7.3 6.2
5/17/21 - 1100 69.5 51 50.4 ENE | 65 2.2 6.6 0.0 13.2 0.00 - - - 0.00 40.6 71.0 6.6 6.2
5/17/21 - 1000 65.5 55 48.7 ENE | 77 1.5 4.8 0.0 13.3 0.00 - - - 0.00 40.6 67.7 5.0 6.2
5/17/21 - 0900 59.5 67 48.7 NNE | 24 0.9 3.4 0.0 13.5 0.00 - - - 0.00 40.6 62.5 5.0 6.2
5/17/21 - 0800 50.9 91 48.4 N | 355 1.1 5.0 38.3 13.4 0.00 - - - 0.00 40.6 56.1 5.0 6.2
5/17/21 - 0700 42.2 98 41.7 WNW | 286 0.4 2.1 60.0 12.8 0.00 - - - 0.00 40.6 46.7 2.8 5.6
5/17/21 - 0600 41.4 98 40.7 S | 173 0.4 2.8 60.0 12.7 0.00 - - - 0.00 40.6 46.7 2.8 4.6
5/17/21 - 0500 42.2 97 41.5 S | 172 0.2 1.8 60.0 12.7 0.00 - - - 0.00 41.4 46.7 2.7 3.6
5/17/21 - 0400 43.0 97 42.1 SSW | 199 0.4 2.0 60.0 12.8 0.00 - - - 0.00 42.6 46.7 2.7 2.6
5/17/21 - 0300 44.3 96 43.2 WSW | 239 0.2 2.7 60.0 12.8 0.00 - - - 0.00 43.4 46.7 2.7 1.6
5/17/21 - 0200 46.0 94 44.4 NNE | 18 0.3 2.2 35.4 12.8 0.00 - - - 0.00 45.0 46.7 2.2 0.6
5/17/21 - 0100 48.1 90 45.4 SSE | 148 0.3 2.2 0.0 12.8 0.00 - - - 0.00 44.4 82.8 15.0 6.8
5/17/21 - 0000 51.9 82 46.6 ENE | 64 0.7 3.4 0.0 12.8 0.00 - - - 0.00 44.4 82.8 15.0 6.8
5/16/21 - 2300 58.9 66 47.4 WNW | 296 0.6 3.0 0.0 12.8 0.00 - - - 0.00 44.4 82.8 15.0 6.8
5/16/21 - 2200 63.8 59 49.3 W | 280 2.0 8.1 0.0 12.9 0.00 - - - 0.00 44.4 82.8 15.0 6.8
5/16/21 - 2100 67.2 57 51.3 W | 269 1.6 8.8 0.0 13.0 0.00 - - - 0.00 44.4 82.8 15.0 6.8
5/16/21 - 2000 72.7 49 52.2 W | 277 2.2 11.4 0.0 13.1 0.00 - - - 0.00 44.4 82.8 15.0 6.8
5/16/21 - 1900 76.8 43 52.9 WSW | 255 4.0 11.5 0.0 13.2 0.00 - - - 0.00 44.4 82.8 15.0 6.8
5/16/21 - 1800 78.6 41 52.9 WSW | 258 5.1 13.2 0.0 13.2 0.00 - - - 0.00 44.4 82.8 15.0 6.8
5/16/21 - 1700 80.7 39 53.2 W | 266 4.5 13.5 0.0 13.1 0.00 - - - 0.00 44.4 82.8 15.0 6.8
5/16/21 - 1600 81.4 37 52.7 WSW | 256 5.0 15.0 0.0 13.1 0.00 - - - 0.00 44.4 82.8 15.0 6.8
5/16/21 - 1500 81.3 39 54.0 SW | 233 5.0 13.4 0.0 13.1 0.00 - 0.10 0.10 0.00 44.4 82.8 13.4 6.8
5/16/21 - 1400 81.0 37 52.6 SSW | 209 4.7 13.4 0.0 13.1 0.00 - 0.10 0.10 0.00 44.4 82.8 13.4 6.8
5/16/21 - 1300 79.7 34 48.6 SE | 143 2.0 5.4 0.0 13.1 0.00 - 0.10 0.10 0.00 44.4 81.7 6.8 6.8
5/16/21 - 1200 75.7 46 53.5 ESE | 109 2.5 6.8 0.0 13.2 0.00 - 0.10 0.10 0.00 44.4 77.6 6.8 6.8
5/16/21 - 1100 71.6 54 54.1 S | 177 1.7 5.9 0.0 13.2 0.00 - 0.10 0.10 0.00 44.4 73.5 5.9 6.8
5/16/21 - 1000 67.8 66 56.0 SSE | 153 1.5 5.0 0.0 13.3 0.00 - 0.10 0.10 0.00 44.4 71.0 5.0 6.8
5/16/21 - 0900 62.1 80 55.6 WNW | 287 0.6 2.8 0.0 13.4 0.00 - 0.10 0.10 0.00 44.4 66.1 2.8 6.8
5/16/21 - 0800 54.0 97 53.2 NNE | 18 0.6 2.8 46.1 13.4 0.00 - 0.10 0.10 0.00 44.4 58.4 2.8 6.8
5/16/21 - 0700 45.9 98 45.5 WSW | 257 0.5 2.4 60.0 12.9 0.00 - 0.10 0.10 0.00 44.4 52.2 2.4 6.0
5/16/21 - 0600 45.4 98 44.9 ENE | 74 0.1 1.6 60.0 12.8 0.00 - 0.10 0.10 0.00 44.7 52.2 2.2 5.0
5/16/21 - 0500 46.4 97 45.7 SW | 223 0.1 1.8 60.0 12.8 0.00 - 0.10 0.10 0.00 45.7 52.2 2.2 4.0
5/16/21 - 0400 47.8 97 47.1 SW | 224 0.3 2.2 60.0 12.8 0.00 - 0.10 0.10 0.00 47.3 52.2 2.2 3.0
5/16/21 - 0300 49.0 97 48.1 ESE | 113 0.1 0.9 60.0 12.8 0.00 - 0.10 0.10 0.00 48.2 52.2 2.1 2.0
5/16/21 - 0200 50.9 96 49.7 SE | 143 0.3 2.1 60.0 12.8 0.00 - 0.10 0.10 0.00 49.9 52.2 2.1 1.0
5/16/21 - 0100 54.2 93 52.4 ESE | 114 0.5 2.5 7.5 12.8 0.00 - 0.10 0.10 0.10 39.4 82.3 13.6 5.4
5/16/21 - 0000 56.5 91 53.8 SE | 127 1.0 3.8 0.0 12.9 0.00 - 0.10 0.10 0.10 39.4 82.3 13.6 5.3
5/15/21 - 2300 56.4 92 54.2 NNW | 347 1.6 7.1 44.5 12.9 0.00 - 0.10 0.10 0.10 39.4 82.3 13.6 5.3
5/15/21 - 2200 56.4 95 55.1 N | 349 1.0 3.9 60.0 13.0 0.00 - 0.10 0.10 0.10 39.4 82.3 13.6 4.5
5/15/21 - 2100 58.9 93 56.9 NNW | 334 0.5 2.7 11.9 13.1 0.00 - 0.10 0.10 0.10 39.4 82.3 13.6 3.5
5/15/21 - 2000 63.7 81 57.8 NE | 42 0.8 2.8 0.0 13.3 0.00 - 0.10 0.10 0.10 39.4 82.3 13.6 3.3
5/15/21 - 1900 64.3 78 57.3 W | 276 0.6 3.0 0.0 13.5 0.00 - 0.10 0.10 0.10 39.4 82.3 13.6 3.3
5/15/21 - 1800 63.2 76 55.5 NW | 304 0.9 3.6 0.0 13.6 0.00 - 0.10 0.10 0.10 39.4 82.3 13.6 3.3
5/15/21 - 1700 60.7 74 52.4 NNE | 26 1.8 7.3 2.9 13.6 0.00 - 0.10 0.10 0.10 39.4 82.3 13.6 3.3
5/15/21 - 1600 64.2 72 54.8 WSW | 246 2.8 12.5 60.0 13.2 0.10 0.68 0.10 0.10 0.10 39.4 82.3 13.6 3.3
5/15/21 - 1500 76.9 41 50.4 WSW | 244 3.4 11.5 21.5 13.3 0.00 - - - 0.00 39.4 82.3 13.6 2.3
5/15/21 - 1400 80.7 30 46.5 SW | 225 3.6 13.6 0.0 13.1 0.00 - - - 0.00 39.4 82.3 13.6 1.9
5/15/21 - 1300 79.2 31 46.3 SE | 135 3.7 10.6 0.0 13.2 0.00 - - - 0.00 39.4 81.0 10.6 1.9
5/15/21 - 1200 75.2 38 47.8 SE | 124 3.0 8.0 0.0 13.2 0.00 - - - 0.00 39.4 78.2 8.6 1.9
5/15/21 - 1100 70.8 45 48.2 SSE | 148 2.6 8.6 0.0 13.2 0.00 - - - 0.00 39.4 73.0 8.6 1.9
5/15/21 - 1000 65.8 51 47.3 ENE | 68 1.8 5.5 0.0 13.3 0.00 - - - 0.00 39.4 69.2 5.5 1.9
5/15/21 - 0900 58.3 64 46.2 W | 270 1.2 3.9 0.0 13.4 0.00 - - - 0.00 39.4 63.2 3.9 1.9
5/15/21 - 0800 49.8 82 44.5 NE | 38 0.8 3.2 0.0 13.3 0.00 - - - 0.00 39.4 55.0 3.8 1.9
5/15/21 - 0700 40.6 97 39.8 SSW | 194 0.2 2.1 59.3 12.8 0.00 - - - 0.00 39.4 50.7 3.8 1.9
5/15/21 - 0600 40.4 95 39.1 WSW | 244 0.2 1.5 57.1 12.7 0.00 - - - 0.00 39.5 50.7 3.8 1.0
5/15/21 - 0500 42.2 94 40.6 SW | 227 0.4 2.3 0.0 12.7 0.00 - - - 0.00 41.5 50.7 3.8 0.0
5/15/21 - 0400 44.2 90 41.7 S | 175 0.2 1.6 0.0 12.7 0.00 - - - 0.00 42.8 50.7 3.8 0.0
5/15/21 - 0300 47.3 85 43.1 S | 172 0.5 3.1 0.0 12.8 0.00 - - - 0.00 45.8 50.7 3.8 0.0
5/15/21 - 0200 49.7 79 43.6 N | 354 1.0 3.8 0.0 12.8 0.00 - - - 0.00 48.8 50.7 3.8 0.0
5/15/21 - 0100 50.7 76 43.4 W | 268 1.3 6.5 0.0 12.8 0.00 - - - 0.00 40.0 84.6 21.7 2.5
5/15/21 - 0000 52.0 73 43.7 WSW | 256 3.0 8.2 0.0 12.8 0.00 - - - 0.00 40.0 84.6 21.7 2.5
5/14/21 - 2300 52.9 70 43.6 SW | 229 2.1 10.1 0.0 12.9 0.00 - - - 0.00 40.0 84.6 21.7 2.5
5/14/21 - 2200 56.2 63 43.9 SSW | 200 1.3 4.1 0.0 12.9 0.00 - - - 0.00 40.0 84.6 21.7 2.5
5/14/21 - 2100 60.7 57 45.3 WNW | 285 1.1 7.2 0.0 13.0 0.00 - - - 0.00 40.0 84.6 21.7 2.5
5/14/21 - 2000 65.5 51 46.9 W | 267 4.0 13.2 0.0 13.1 0.00 - - - 0.00 40.0 84.6 21.7 2.5
5/14/21 - 1900 70.4 45 47.8 W | 261 4.8 13.9 0.0 13.3 0.00 - - - 0.00 40.0 84.6 21.7 2.5
5/14/21 - 1800 75.5 34 45.3 W | 269 5.3 17.0 0.0 13.2 0.00 - - - 0.00 40.0 84.6 21.7 2.5
5/14/21 - 1700 77.9 27 40.9 W | 267 5.6 20.4 0.0 13.2 0.00 - - - 0.00 40.0 84.6 21.7 2.5
5/14/21 - 1600 81.4 23 40.1 W | 274 5.2 15.7 0.0 13.1 0.00 - - - 0.00 40.0 84.6 21.7 2.5
5/14/21 - 1500 82.3 21 38.4 W | 260 7.6 21.7 0.0 13.1 0.00 - - - 0.00 40.0 84.6 21.7 2.5
5/14/21 - 1400 83.6 22 40.5 W | 263 5.8 19.0 0.0 13.1 0.00 - - - 0.00 40.0 84.6 19.0 2.5
5/14/21 - 1300 82.8 27 45.4 W | 269 3.7 13.2 0.0 13.1 0.00 - - - 0.00 40.0 84.3 13.2 2.5
5/14/21 - 1200 81.0 34 49.8 E | 91 2.7 7.0 0.0 13.1 0.00 - - - 0.00 40.0 82.6 7.1 2.5
5/14/21 - 1100 77.9 37 49.4 ESE | 104 2.4 7.1 0.0 13.2 0.00 - - - 0.00 40.0 80.0 7.1 2.5
5/14/21 - 1000 71.9 42 47.6 NNE | 33 1.1 3.6 0.0 13.2 0.00 - - - 0.00 40.0 75.1 3.6 2.5
5/14/21 - 0900 65.8 51 47.1 NE | 50 0.8 3.2 0.0 13.4 0.00 - - - 0.00 40.0 70.0 3.2 2.5
5/14/21 - 0800 51.8 82 46.1 NNE | 17 0.2 1.4 10.3 13.3 0.00 - - - 0.00 40.0 59.7 1.9 2.5
5/14/21 - 0700 40.9 97 40.1 SW | 220 0.0 1.1 60.0 12.8 0.00 - - - 0.00 40.0 47.9 1.9 2.3
5/14/21 - 0600 40.7 96 39.5 SW | 221 0.1 1.1 60.0 12.7 0.00 - - - 0.00 40.1 47.9 1.9 1.3
5/14/21 - 0500 42.0 94 40.5 SW | 220 0.2 1.1 17.1 12.7 0.00 - - - 0.00 41.5 47.9 1.9 0.3
5/14/21 - 0400 43.2 93 41.2 SE | 141 0.1 1.9 0.0 12.7 0.00 - - - 0.00 42.6 47.9 1.9 0.0
5/14/21 - 0300 44.8 91 42.2 ESE | 120 0.0 1.4 0.0 12.7 0.00 - - - 0.00 44.0 47.9 1.6 0.0
5/14/21 - 0200 46.7 86 42.8 SSE | 165 0.2 1.6 0.0 12.7 0.00 - - - 0.00 45.6 47.9 1.6 0.0
5/14/21 - 0100 49.2 80 43.4 E | 83 0.3 3.7 0.0 12.8 0.00 - - - 0.00 39.0 90.8 16.6 0.0
5/14/21 - 0000 52.5 75 44.7 N | 10 0.5 2.4 0.0 12.8 0.00 - - - 0.00 39.0 90.8 16.6 0.0
5/13/21 - 2300 58.8 61 45.3 N | 360 0.6 3.0 0.0 12.8 0.00 - - - 0.00 39.0 90.8 16.6 0.0
5/13/21 - 2200 68.6 43 45.4 NW | 320 0.5 4.8 0.0 12.9 0.00 - - - 0.00 39.0 90.8 16.6 0.0
5/13/21 - 2100 73.0 37 44.9 WNW | 287 1.6 8.9 0.0 12.9 0.00 - - - 0.00 39.0 90.8 16.6 0.0
5/13/21 - 2000 77.7 27 40.8 W | 261 3.2 12.5 0.0 13.0 0.00 - - - 0.00 39.0 90.8 16.6 0.0
5/13/21 - 1900 82.6 17 33.3 W | 265 5.1 16.6 0.0 13.2 0.00 - - - 0.00 39.0 90.8 16.6 0.0
5/13/21 - 1800 86.2 21 41.6 W | 276 3.9 14.0 0.0 13.1 0.00 - - - 0.00 39.0 90.8 14.0 0.0
5/13/21 - 1700 87.9 24 46.2 W | 259 4.8 12.5 0.0 13.0 0.00 - - - 0.00 39.0 90.8 13.8 0.0
5/13/21 - 1600 88.5 25 47.7 WSW | 255 5.1 13.8 0.0 13.0 0.00 - - - 0.00 39.0 90.8 13.8 0.0
5/13/21 - 1500 89.5 21 44.1 WSW | 243 3.8 12.7 0.0 13.0 0.00 - - - 0.00 39.0 90.8 12.7 0.0
5/13/21 - 1400 88.9 14 33.3 SE | 135 2.2 6.6 0.0 13.0 0.00 - - - 0.00 39.0 90.6 6.8 0.0
5/13/21 - 1300 86.4 20 41.1 SE | 141 2.3 6.8 0.0 13.1 0.00 - - - 0.00 39.0 87.4 6.8 0.0
5/13/21 - 1200 83.1 26 45.1 SE | 141 1.8 5.6 0.0 13.1 0.00 - - - 0.00 39.0 85.6 5.6 0.0
5/13/21 - 1100 77.8 35 48.0 ENE | 59 1.8 4.8 0.0 13.1 0.00 - - - 0.00 39.0 80.4 4.8 0.0
5/13/21 - 1000 72.6 41 47.6 NE | 45 1.2 3.9 0.0 13.2 0.00 - - - 0.00 39.0 75.0 3.9 0.0
5/13/21 - 0900 64.9 54 47.6 ENE | 67 0.7 2.6 0.0 13.4 0.00 - - - 0.00 39.0 69.5 2.6 0.0
5/13/21 - 0800 51.8 72 42.9 ENE | 78 0.1 1.2 0.0 13.3 0.00 - - - 0.00 39.0 58.8 1.4 0.0
5/13/21 - 0700 39.6 95 38.4 ESE | 103 0.1 1.2 0.0 12.8 0.00 - - - 0.00 39.0 46.1 1.4 0.0
5/13/21 - 0600 39.6 93 37.8 NE | 56 0.0 1.4 0.0 12.7 0.00 - - - 0.00 39.0 46.1 1.4 0.0
5/13/21 - 0500 40.6 92 38.5 NNE | 24 0.1 1.4 0.0 12.7 0.00 - - - 0.00 40.1 46.1 1.4 0.0
5/13/21 - 0400 41.6 90 38.8 NNE | 19 0.1 0.9 0.0 12.7 0.00 - - - 0.00 41.1 46.1 1.3 0.0
5/13/21 - 0300 43.2 86 39.3 NNE | 20 0.1 1.3 0.0 12.7 0.00 - - - 0.00 42.4 46.1 1.3 0.0
5/13/21 - 0200 45.0 82 40.0 NNE | 19 0.0 0.9 0.0 12.7 0.00 - - - 0.00 44.1 46.1 0.9 0.0
5/13/21 - 0100 47.4 79 41.2 WSW | 251 0.3 1.6 0.0 12.8 0.00 - - - 0.00 38.0 89.5 15.3 0.0
5/13/21 - 0000 50.8 72 42.1 ENE | 63 0.5 2.4 0.0 12.8 0.00 - - - 0.00 38.0 89.5 15.3 0.0
5/12/21 - 2300 54.4 68 44.2 NNE | 30 0.4 2.4 0.0 12.8 0.00 - - - 0.00 38.0 89.5 15.3 0.0
5/12/21 - 2200 59.9 58 45.0 N | 353 0.6 2.6 0.0 12.9 0.00 - - - 0.00 38.0 89.5 15.3 0.0
5/12/21 - 2100 67.8 45 45.8 WSW | 246 0.6 3.4 0.0 12.9 0.00 - - - 0.00 38.0 89.5 15.3 0.0
5/12/21 - 2000 78.2 31 45.2 W | 272 1.3 6.6 0.0 13.0 0.00 - - - 0.00 38.0 89.5 15.3 0.0
5/12/21 - 1900 82.6 26 44.2 WSW | 245 4.0 10.7 0.0 13.2 0.00 - - - 0.00 38.0 89.5 15.3 0.0
5/12/21 - 1800 85.2 25 45.6 WSW | 238 5.8 14.0 0.0 13.1 0.00 - - - 0.00 38.0 89.5 15.3 0.0
5/12/21 - 1700 87.4 21 42.8 SW | 228 5.3 15.3 0.0 13.0 0.00 - - - 0.00 38.0 89.5 15.3 0.0
5/12/21 - 1600 88.4 16 37.2 SW | 226 4.4 10.5 0.0 13.0 0.00 - - - 0.00 38.0 89.5 10.5 0.0
5/12/21 - 1500 88.6 14 34.0 SW | 227 3.8 10.3 0.0 13.0 0.00 - - - 0.00 38.0 89.5 10.3 0.0
5/12/21 - 1400 87.2 17 36.4 SW | 225 3.4 9.2 0.0 13.0 0.00 - - - 0.00 38.0 88.0 9.2 0.0
5/12/21 - 1300 85.9 20 40.6 SE | 134 3.0 8.3 0.0 13.1 0.00 - - - 0.00 38.0 86.9 8.3 0.0
5/12/21 - 1200 83.3 23 41.5 ESE | 108 2.9 6.5 0.0 13.1 0.00 - - - 0.00 38.0 84.8 6.5 0.0
5/12/21 - 1100 78.1 33 46.4 E | 83 2.2 5.8 0.0 13.2 0.00 - - - 0.00 38.0 80.9 5.8 0.0
5/12/21 - 1000 72.7 42 48.0 E | 82 1.2 4.4 0.0 13.2 0.00 - - - 0.00 38.0 75.3 4.4 0.0
5/12/21 - 0900 64.3 49 44.8 NE | 53 0.5 3.0 0.0 13.4 0.00 - - - 0.00 38.0 68.8 3.0 0.0
5/12/21 - 0800 50.4 70 40.8 NE | 35 0.5 1.9 0.0 13.3 0.00 - - - 0.00 38.0 57.0 1.9 0.0
5/12/21 - 0700 38.9 93 37.1 SW | 228 0.2 1.1 0.0 12.8 0.00 - - - 0.00 38.0 45.6 1.4 0.0
5/12/21 - 0600 38.8 91 36.4 SW | 228 0.1 0.9 0.0 12.7 0.00 - - - 0.00 38.1 45.6 1.4 0.0
5/12/21 - 0500 40.1 89 37.0 E | 94 0.0 0.7 0.0 12.7 0.00 - - - 0.00 39.3 45.6 1.4 0.0
5/12/21 - 0400 41.4 85 37.2 S | 187 0.2 1.4 0.0 12.7 0.00 - - - 0.00 40.7 45.6 1.4 0.0
5/12/21 - 0300 42.6 81 37.0 ENE | 75 0.1 1.0 0.0 12.7 0.00 - - - 0.00 42.0 45.6 1.2 0.0
5/12/21 - 0200 44.2 80 38.4 NE | 53 0.2 1.2 0.0 12.7 0.00 - - - 0.00 43.3 45.6 1.2 0.0
5/12/21 - 0100 46.6 76 39.5 E | 93 0.2 1.8 0.0 12.8 0.00 - - - 0.00 37.8 89.7 15.9 0.0
5/12/21 - 0000 49.4 69 39.8 S | 181 0.1 1.3 0.0 12.8 0.00 - - - 0.00 37.8 89.7 15.9 0.0
5/11/21 - 2300 52.8 63 40.7 ENE | 60 0.3 2.4 0.0 12.8 0.00 - - - 0.00 37.8 89.7 15.9 0.0
5/11/21 - 2200 57.8 51 40.0 NE | 56 0.5 2.3 0.0 12.9 0.00 - - - 0.00 37.8 89.7 15.9 0.0
5/11/21 - 2100 66.2 38 39.5 W | 263 0.4 2.1 0.0 13.0 0.00 - - - 0.00 37.8 89.7 15.9 0.0
5/11/21 - 2000 77.1 24 37.4 W | 274 1.2 9.2 0.0 13.1 0.00 - - - 0.00 37.8 89.7 15.9 0.0
5/11/21 - 1900 82.0 18 35.0 WSW | 256 4.3 12.8 0.0 13.2 0.00 - - - 0.00 37.8 89.7 15.9 0.0
5/11/21 - 1800 85.3 18 36.4 WSW | 257 4.3 15.9 0.0 13.1 0.00 - - - 0.00 37.8 89.7 15.9 0.0
5/11/21 - 1700 87.6 17 37.7 SW | 226 4.4 12.3 0.0 13.0 0.00 - - - 0.00 37.8 89.7 13.4 0.0
Max 89.5 98 57.8 - 7.6 21.7 60.0 13.6 0.10 - 0.10 0.10 0.10 53.0 90.8 21.7 6.8
Avg 63.0 59 44.5 - 2.0 6.9 7.5 13.0 0.00 - 0.10 0.10 - - - - -
Min 38.8 14 33.3 - 0.0 0.7 0.0 12.7 0.00 - 0.10 0.10 0.00 37.8 45.6 0.9 0.0
Total - - - - - - - - 0.10 - - - - - - - -